Time;durP1;ratioP1;P1;durP2;ratioP2;P2;SDS_P1;SDS_P2;PMS_P1;PMS_P2;Temp;Humidity;BMP_temperature;BMP_pressure;BME280_temperature;BME280_humidity;BME280_pressure;Samples;Min_cycle;Max_cycle;Signal;HPM_P1;HPM_P2
2023/09/04 00:01:44;;;;;;;9.60;7.43;;;21.60;75.00;;;;;;5137133;27;20027;-69
2023/09/04 00:04:18;;;;;;;8.00;6.32;;;21.60;75.00;;;;;;5136125;27;20023;-66
2023/09/04 00:06:44;;;;;;;7.95;6.80;;;21.50;75.00;;;;;;5136530;27;20038;-66
2023/09/04 00:09:11;;;;;;;8.85;6.75;;;21.40;75.00;;;;;;5136661;27;20102;-69
2023/09/04 00:11:41;;;;;;;8.45;6.80;;;21.40;75.20;;;;;;5137003;27;20065;-69
2023/09/04 00:14:09;;;;;;;9.27;6.72;;;21.40;75.30;;;;;;5136394;27;20023;-66
2023/09/04 00:16:39;;;;;;;10.02;6.75;;;21.30;75.30;;;;;;5136974;27;20026;-66
2023/09/04 00:19:07;;;;;;;9.25;6.10;;;21.30;75.40;;;;;;5136324;27;20353;-65
2023/09/04 00:21:32;;;;;;;8.10;6.47;;;21.20;75.40;;;;;;5136309;27;20395;-66
2023/09/04 00:24:00;;;;;;;8.70;6.85;;;21.20;75.90;;;;;;5136616;27;20028;-66
2023/09/04 00:26:27;;;;;;;7.57;5.80;;;21.20;75.60;;;;;;5135336;27;20023;-66
2023/09/04 00:29:04;;;;;;;9.20;6.65;;;21.10;75.70;;;;;;5136194;27;20030;-69
2023/09/04 00:31:29;;;;;;;8.95;7.05;;;21.00;75.80;;;;;;5136808;27;20015;-66
2023/09/04 00:33:55;;;;;;;10.07;7.20;;;21.00;76.10;;;;;;5136243;27;20030;-69
2023/09/04 00:36:22;;;;;;;14.85;8.48;;;20.90;76.20;;;;;;5136221;27;20081;-66
2023/09/04 00:38:48;;;;;;;8.65;6.70;;;20.90;76.60;;;;;;5136206;27;20443;-65
2023/09/04 00:41:15;;;;;;;8.52;6.88;;;20.90;76.40;;;;;;5136701;28;20051;-65
2023/09/04 00:43:44;;;;;;;8.25;6.40;;;20.90;76.20;;;;;;5136051;27;20061;-65
2023/09/04 00:46:11;;;;;;;9.25;6.40;;;20.90;76.00;;;;;;5136325;28;20039;-66
2023/09/04 00:48:38;;;;;;;8.43;5.90;;;20.90;76.10;;;;;;5135426;28;20074;-65
2023/09/04 00:51:10;;;;;;;9.80;6.25;;;20.90;75.80;;;;;;5136406;27;20094;-66
2023/09/04 00:53:38;;;;;;;8.57;5.88;;;20.90;75.60;;;;;;5136031;27;20019;-66
2023/09/04 00:56:12;;;;;;;9.15;5.53;;;20.90;75.50;;;;;;5136555;27;20031;-65
2023/09/04 00:58:41;;;;;;;8.35;5.45;;;20.90;75.40;;;;;;5135945;27;20100;-65
2023/09/04 01:01:22;;;;;;;8.70;5.10;;;20.90;75.30;;;;;;5135967;27;20027;-65
2023/09/04 01:03:48;;;;;;;9.40;4.80;;;20.90;75.10;;;;;;5136192;27;20039;-69
2023/09/04 01:06:15;;;;;;;5.28;4.68;;;20.90;75.10;;;;;;5136160;27;20019;-69
2023/09/04 01:08:48;;;;;;;6.70;4.65;;;20.90;75.10;;;;;;5135795;27;20027;-69
2023/09/04 01:14:05;;;;;;;6.80;5.22;;;20.80;74.90;;;;;;5101834;28;20512;-65
2023/09/04 01:16:31;;;;;;;6.28;4.85;;;20.80;74.70;;;;;;5136810;27;20016;-66
2023/09/04 01:19:02;;;;;;;7.88;4.70;;;20.80;74.70;;;;;;5140208;27;20084;-65
2023/09/04 01:21:28;;;;;;;5.50;4.25;;;20.80;74.60;;;;;;5140252;27;20034;-65
2023/09/04 01:23:58;;;;;;;6.55;4.80;;;20.80;74.50;;;;;;5139545;27;20031;-65
2023/09/04 01:26:31;;;;;;;6.07;4.18;;;20.80;74.40;;;;;;5140429;27;20042;-69
2023/09/04 01:29:27;;;;;;;5.70;4.57;;;20.90;74.20;;;;;;5140126;27;20019;-69
2023/09/04 01:32:36;;;;;;;6.30;4.00;;;20.90;74.20;;;;;;5140052;27;20294;-65
2023/09/04 01:35:05;;;;;;;7.07;4.03;;;20.80;74.10;;;;;;5139625;27;20043;-65
2023/09/04 01:37:32;;;;;;;7.32;4.30;;;20.90;74.00;;;;;;5139637;27;20437;-65
2023/09/04 01:39:58;;;;;;;5.65;4.03;;;20.90;73.90;;;;;;5139273;27;20114;-65
2023/09/04 01:42:27;;;;;;;6.07;4.38;;;20.90;73.70;;;;;;5138270;27;20409;-65
2023/09/04 01:44:53;;;;;;;6.07;4.85;;;20.90;73.60;;;;;;5139410;27;20028;-65
2023/09/04 01:47:25;;;;;;;10.45;4.80;;;20.90;73.40;;;;;;5139031;27;20406;-65
2023/09/04 01:49:51;;;;;;;8.65;5.35;;;20.90;73.40;;;;;;5139118;27;20103;-65
2023/09/04 01:52:19;;;;;;;7.00;4.80;;;20.90;73.40;;;;;;5139616;27;20038;-65
2023/09/04 01:54:44;;;;;;;7.80;5.25;;;20.90;73.30;;;;;;5138982;27;20353;-65
2023/09/04 01:57:10;;;;;;;9.20;5.20;;;20.90;73.30;;;;;;5139526;27;20027;-65
2023/09/04 01:59:42;;;;;;;10.20;5.57;;;20.80;73.40;;;;;;5139481;27;20030;-65
2023/09/04 02:02:09;;;;;;;7.70;5.18;;;20.90;73.30;;;;;;5139242;27;20098;-65
2023/09/04 02:04:38;;;;;;;6.40;4.97;;;20.90;73.30;;;;;;5138881;27;20027;-65
2023/09/04 02:07:11;;;;;;;9.38;5.35;;;20.90;73.30;;;;;;5138797;27;20115;-65
2023/09/04 02:09:37;;;;;;;6.65;4.60;;;20.80;73.30;;;;;;5139341;27;20048;-65
2023/09/04 02:12:10;;;;;;;8.32;5.03;;;20.90;73.30;;;;;;5138730;27;20436;-64
2023/09/04 02:14:38;;;;;;;8.05;4.97;;;20.90;73.30;;;;;;5138886;27;20055;-64
2023/09/04 02:17:04;;;;;;;6.85;4.90;;;20.90;73.30;;;;;;5138652;27;20015;-65
2023/09/04 02:19:30;;;;;;;5.43;4.70;;;20.90;73.20;;;;;;5138588;27;20402;-64
2023/09/04 02:21:56;;;;;;;8.23;5.63;;;20.90;73.20;;;;;;5138798;27;20031;-65
2023/09/04 02:24:24;;;;;;;7.82;5.28;;;20.90;73.40;;;;;;5138436;27;20092;-64
2023/09/04 02:26:54;;;;;;;10.10;5.63;;;20.90;73.20;;;;;;5138948;27;20043;-65
2023/09/04 02:29:20;;;;;;;8.18;5.72;;;20.90;73.20;;;;;;5138033;27;20448;-65
2023/09/04 02:31:46;;;;;;;9.20;5.80;;;20.90;73.30;;;;;;5138266;27;20068;-65
2023/09/04 02:34:14;;;;;;;10.38;6.13;;;20.90;73.30;;;;;;5138245;27;20402;-68
2023/09/04 02:36:43;;;;;;;9.63;5.65;;;20.90;73.50;;;;;;5138039;27;20122;-68
2023/09/04 02:39:12;;;;;;;8.77;5.72;;;20.90;73.60;;;;;;5138136;27;20062;-69
2023/09/04 02:41:38;;;;;;;7.88;5.85;;;20.90;73.50;;;;;;5138126;27;20023;-68
2023/09/04 02:44:06;;;;;;;8.43;5.75;;;20.90;73.80;;;;;;5138591;27;20386;-68
2023/09/04 02:46:32;;;;;;;7.35;6.07;;;20.90;73.90;;;;;;5138320;27;20441;-69
2023/09/04 02:49:00;;;;;;;7.45;5.60;;;20.90;74.20;;;;;;5136928;27;20027;-68
2023/09/04 02:51:25;;;;;;;8.52;6.70;;;20.90;74.30;;;;;;5137974;27;20061;-68
2023/09/04 02:53:52;;;;;;;6.78;5.22;;;20.90;74.50;;;;;;5137882;27;20051;-69
2023/09/04 02:56:18;;;;;;;8.07;5.80;;;20.90;74.40;;;;;;5138109;27;20067;-69
2023/09/04 02:58:44;;;;;;;8.23;5.93;;;20.90;74.80;;;;;;5137822;27;20438;-68
2023/09/04 03:01:22;;;;;;;8.25;5.97;;;20.90;74.70;;;;;;5137757;27;20546;-68
2023/09/04 03:03:50;;;;;;;8.70;6.63;;;20.90;74.90;;;;;;5138160;27;20038;-68
2023/09/04 03:06:16;;;;;;;7.75;6.40;;;20.90;74.90;;;;;;5137548;27;20357;-68
2023/09/04 03:08:42;;;;;;;9.60;6.63;;;20.90;74.90;;;;;;5137766;27;20092;-69
2023/09/04 03:11:10;;;;;;;8.48;6.15;;;20.90;75.20;;;;;;5137847;27;20023;-68
2023/09/04 03:16:01;;;;;;;8.93;6.63;;;20.90;75.00;;;;;;5137944;27;20108;-68
2023/09/04 03:18:29;;;;;;;7.38;5.38;;;20.90;75.20;;;;;;5137424;27;20027;-68
2023/09/04 03:20:56;;;;;;;8.27;5.75;;;20.90;75.10;;;;;;5137907;27;20105;-69
2023/09/04 03:23:21;;;;;;;8.20;5.38;;;20.90;75.30;;;;;;5137182;27;20027;-70
2023/09/04 03:25:48;;;;;;;8.65;6.07;;;20.90;75.30;;;;;;5137532;27;20023;-68
2023/09/04 03:28:14;;;;;;;7.35;5.90;;;20.90;75.40;;;;;;5137128;27;20058;-68
2023/09/04 03:30:44;;;;;;;7.20;5.00;;;20.90;75.50;;;;;;5137148;27;20051;-68
2023/09/04 03:33:10;;;;;;;6.00;4.82;;;20.90;75.40;;;;;;5137009;27;20023;-69
2023/09/04 03:35:36;;;;;;;6.35;5.00;;;20.90;75.50;;;;;;5137235;27;20047;-70
2023/09/04 03:38:05;;;;;;;6.38;5.10;;;20.90;75.50;;;;;;5137302;27;20330;-69
2023/09/04 03:40:31;;;;;;;5.90;4.70;;;20.90;75.60;;;;;;5136764;27;20115;-69
2023/09/04 03:42:57;;;;;;;6.53;4.88;;;20.90;75.60;;;;;;5137421;27;20106;-69
2023/09/04 03:45:23;;;;;;;6.18;5.03;;;20.80;75.60;;;;;;5136811;27;20027;-68
2023/09/04 03:47:49;;;;;;;6.13;4.88;;;20.90;75.70;;;;;;5136783;27;20110;-67
2023/09/04 03:50:16;;;;;;;6.70;5.03;;;20.90;75.70;;;;;;5137063;27;20023;-68
2023/09/04 03:52:43;;;;;;;7.63;5.60;;;20.90;75.70;;;;;;5136805;27;20020;-69
2023/09/04 03:55:11;;;;;;;7.05;5.20;;;20.90;75.70;;;;;;5136711;27;20016;-68
2023/09/04 03:57:37;;;;;;;7.93;5.78;;;20.90;75.70;;;;;;5137271;27;20038;-68
2023/09/04 04:00:16;;;;;;;9.27;6.10;;;20.90;75.80;;;;;;5136998;27;20482;-68
2023/09/04 04:02:48;;;;;;;7.68;5.25;;;20.90;75.70;;;;;;5136933;27;20041;-68
2023/09/04 04:05:19;;;;;;;6.40;5.05;;;20.90;75.60;;;;;;5137113;27;20078;-69
2023/09/04 04:07:56;;;;;;;6.50;5.13;;;20.90;75.50;;;;;;5136783;27;20062;-68
2023/09/04 04:10:23;;;;;;;7.47;5.13;;;20.90;75.50;;;;;;5136566;27;20019;-68
2023/09/04 04:12:53;;;;;;;6.28;4.72;;;20.90;75.40;;;;;;5136743;27;20080;-69
2023/09/04 04:15:24;;;;;;;6.60;4.80;;;20.90;75.30;;;;;;5136385;27;20107;-68
2023/09/04 04:17:51;;;;;;;5.75;4.47;;;20.90;75.30;;;;;;5136408;27;20031;-68
2023/09/04 04:20:27;;;;;;;6.03;4.82;;;20.90;75.30;;;;;;5136942;27;20026;-69
2023/09/04 04:22:53;;;;;;;5.43;4.30;;;20.90;75.40;;;;;;5136953;27;20050;-65
2023/09/04 04:25:21;;;;;;;7.07;4.70;;;21.00;75.40;;;;;;5136250;27;20468;-65
2023/09/04 04:27:49;;;;;;;6.22;5.00;;;20.90;75.30;;;;;;5136160;27;20030;-64
2023/09/04 04:30:17;;;;;;;6.63;4.53;;;21.00;75.30;;;;;;5136724;27;20053;-64
2023/09/04 04:32:53;;;;;;;6.47;4.72;;;21.00;75.20;;;;;;5136811;27;20015;-65
2023/09/04 04:35:25;;;;;;;6.85;4.53;;;21.10;75.20;;;;;;5136014;27;20077;-68
2023/09/04 04:37:56;;;;;;;4.97;4.35;;;21.00;75.30;;;;;;5136238;27;20034;-65
2023/09/04 04:40:32;;;;;;;5.35;4.57;;;21.10;75.20;;;;;;5136164;28;20019;-64
2023/09/04 04:43:01;;;;;;;6.93;4.47;;;21.10;75.10;;;;;;5136627;27;20500;-66
2023/09/04 04:45:27;;;;;;;6.03;4.85;;;21.10;75.30;;;;;;5136662;27;20023;-65
2023/09/04 04:47:53;;;;;;;5.70;4.50;;;21.10;75.30;;;;;;5136598;27;20038;-65
2023/09/04 04:50:19;;;;;;;6.30;4.63;;;21.20;75.30;;;;;;5137049;27;20030;-68
2023/09/04 04:52:48;;;;;;;6.03;4.20;;;21.20;75.30;;;;;;5140532;27;20027;-68
2023/09/04 04:55:17;;;;;;;5.70;4.63;;;21.20;75.30;;;;;;5140421;27;20037;-68
2023/09/04 04:57:43;;;;;;;6.07;4.47;;;21.20;75.30;;;;;;5140390;27;20128;-68
2023/09/04 05:00:16;;;;;;;4.72;4.00;;;21.30;75.40;;;;;;5140076;27;20460;-69
2023/09/04 05:02:43;;;;;;;6.35;4.28;;;21.20;75.40;;;;;;5140738;27;20034;-65
2023/09/04 05:05:10;;;;;;;6.43;4.43;;;21.30;75.40;;;;;;5140009;27;20096;-66
2023/09/04 05:07:36;;;;;;;5.82;4.50;;;21.30;75.40;;;;;;5138970;27;20110;-66
2023/09/04 05:10:03;;;;;;;5.40;4.35;;;21.30;75.50;;;;;;5139927;27;20023;-65
2023/09/04 05:12:33;;;;;;;6.25;4.75;;;21.40;75.60;;;;;;5140146;27;20070;-69
2023/09/04 05:15:00;;;;;;;5.40;4.30;;;21.40;75.50;;;;;;5139828;27;20015;-65
2023/09/04 05:17:26;;;;;;;7.32;4.88;;;21.40;75.40;;;;;;5139877;27;20102;-65
2023/09/04 05:19:52;;;;;;;6.28;5.15;;;21.30;75.40;;;;;;5140266;27;20019;-64
2023/09/04 05:22:18;;;;;;;7.03;4.45;;;21.40;75.40;;;;;;5140261;27;20341;-65
2023/09/04 05:24:45;;;;;;;5.70;4.32;;;21.30;75.30;;;;;;5139828;27;20045;-64
2023/09/04 05:27:14;;;;;;;5.78;4.43;;;21.30;75.30;;;;;;5139595;27;20424;-63
2023/09/04 05:29:39;;;;;;;5.75;4.45;;;21.30;75.50;;;;;;5139377;27;20019;-63
2023/09/04 05:32:05;;;;;;;10.07;5.20;;;21.30;75.70;;;;;;5138012;27;20024;-63
2023/09/04 05:34:31;;;;;;;7.30;4.68;;;21.30;75.70;;;;;;5139023;27;20102;-67
2023/09/04 05:36:57;;;;;;;8.32;5.25;;;21.30;75.70;;;;;;5138283;27;20437;-67
2023/09/04 05:39:23;;;;;;;9.60;5.60;;;21.40;75.80;;;;;;5138414;27;20492;-64
2023/09/04 05:41:49;;;;;;;7.55;5.30;;;21.40;75.70;;;;;;5136452;27;20453;-64
2023/09/04 05:44:15;;;;;;;6.22;5.00;;;21.40;75.80;;;;;;5132777;27;20019;-63
2023/09/04 05:46:41;;;;;;;9.52;5.57;;;21.40;75.90;;;;;;5137096;27;20030;-66
2023/09/04 05:49:07;;;;;;;7.35;5.65;;;21.40;75.90;;;;;;5138536;27;20023;-67
2023/09/04 05:51:33;;;;;;;8.02;5.97;;;21.40;76.00;;;;;;5133714;27;20038;-68
2023/09/04 05:53:58;;;;;;;7.40;5.43;;;21.50;75.90;;;;;;5134846;27;20019;-68
2023/09/04 05:56:24;;;;;;;9.50;5.78;;;21.50;75.90;;;;;;5128824;27;20357;-66
2023/09/04 05:58:51;;;;;;;7.78;4.68;;;21.50;76.00;;;;;;5136498;27;20084;-67
2023/09/04 06:01:19;;;;;;;8.25;5.35;;;21.60;76.00;;;;;;5134593;27;20033;-68
2023/09/04 06:03:46;;;;;;;6.32;5.30;;;21.60;76.00;;;;;;5121109;27;20348;-67
2023/09/04 06:06:13;;;;;;;9.80;5.85;;;21.60;76.00;;;;;;5119681;27;20037;-66
2023/09/04 06:08:39;;;;;;;8.65;5.90;;;21.70;75.90;;;;;;5124859;27;20076;-67
2023/09/04 06:11:05;;;;;;;8.48;5.90;;;21.70;76.00;;;;;;5133813;27;20023;-66
2023/09/04 06:13:32;;;;;;;9.05;5.40;;;21.80;75.80;;;;;;5135471;27;20031;-67
2023/09/04 06:16:02;;;;;;;8.52;5.28;;;21.90;75.70;;;;;;5119904;27;20063;-66
2023/09/04 06:18:29;;;;;;;7.68;5.60;;;21.90;75.60;;;;;;5117852;28;20027;-67
2023/09/04 06:20:56;;;;;;;9.30;5.40;;;22.00;75.40;;;;;;5124717;27;20106;-64
2023/09/04 06:23:22;;;;;;;9.68;5.45;;;22.00;75.30;;;;;;5118104;27;20062;-65
2023/09/04 06:25:48;;;;;;;7.07;5.65;;;22.10;75.30;;;;;;5121619;27;20038;-66
2023/09/04 06:28:14;;;;;;;6.05;4.97;;;22.10;75.40;;;;;;5133028;27;20106;-65
2023/09/04 06:30:40;;;;;;;10.50;5.05;;;22.20;75.50;;;;;;5132950;27;20024;-65
2023/09/04 06:33:07;;;;;;;7.90;5.00;;;22.30;75.50;;;;;;5131973;27;20110;-65
2023/09/04 06:35:34;;;;;;;9.25;5.90;;;22.40;75.40;;;;;;5124716;27;20426;-65
2023/09/04 06:38:00;;;;;;;8.05;6.28;;;22.50;75.70;;;;;;5122634;27;20031;-66
2023/09/04 06:40:26;;;;;;;9.18;6.30;;;22.60;75.40;;;;;;5125175;27;20085;-65
2023/09/04 06:42:55;;;;;;;9.20;6.18;;;22.70;75.20;;;;;;5133500;27;20449;-65
2023/09/04 06:45:21;;;;;;;8.00;5.95;;;22.90;75.10;;;;;;5127039;27;20074;-66
2023/09/04 06:47:52;;;;;;;9.20;6.32;;;22.90;74.80;;;;;;5125908;27;20032;-65
2023/09/04 06:50:18;;;;;;;7.45;5.95;;;23.00;74.60;;;;;;5128152;27;20023;-67
2023/09/04 06:52:44;;;;;;;8.30;6.00;;;23.20;74.30;;;;;;5129106;27;20468;-64
2023/09/04 06:55:10;;;;;;;8.90;6.13;;;23.40;74.00;;;;;;5121597;27;20027;-64
2023/09/04 06:57:36;;;;;;;8.88;6.30;;;23.60;73.70;;;;;;5121938;27;20026;-65
2023/09/04 07:00:10;;;;;;;8.73;5.75;;;24.20;72.90;;;;;;5137924;27;20098;-66
2023/09/04 07:02:37;;;;;;;8.52;5.82;;;24.80;71.40;;;;;;5135698;27;20050;-65
2023/09/04 07:05:05;;;;;;;8.43;6.05;;;25.00;69.70;;;;;;5121593;27;20513;-65
2023/09/04 07:07:35;;;;;;;8.40;5.90;;;25.20;69.20;;;;;;5129461;27;20024;-66
2023/09/04 07:10:04;;;;;;;11.35;5.72;;;25.30;68.80;;;;;;5135593;27;20342;-67
2023/09/04 07:12:33;;;;;;;11.07;6.20;;;25.20;67.90;;;;;;5136747;27;20023;-66
2023/09/04 07:14:59;;;;;;;8.27;5.53;;;25.00;67.60;;;;;;5131471;27;20031;-67
2023/09/04 07:17:25;;;;;;;8.20;5.95;;;25.20;68.10;;;;;;5127083;27;20031;-67
2023/09/04 07:19:51;;;;;;;10.65;6.65;;;25.40;66.70;;;;;;5133127;27;20075;-66
2023/09/04 07:22:17;;;;;;;10.55;6.57;;;25.40;66.40;;;;;;5131951;27;20027;-67
2023/09/04 07:24:43;;;;;;;7.65;5.93;;;25.30;66.40;;;;;;5125868;27;20055;-65
2023/09/04 07:27:10;;;;;;;8.70;6.10;;;25.20;66.50;;;;;;5134842;27;20023;-66
2023/09/04 07:29:36;;;;;;;12.15;5.85;;;25.10;66.40;;;;;;5130321;27;20398;-65
2023/09/04 07:32:02;;;;;;;9.32;5.82;;;25.00;66.80;;;;;;5128864;27;20035;-66
2023/09/04 07:34:29;;;;;;;8.05;5.35;;;25.10;66.90;;;;;;5116512;28;20016;-66
2023/09/04 07:36:55;;;;;;;7.50;4.85;;;25.20;66.30;;;;;;5112398;28;20360;-66
2023/09/04 07:39:20;;;;;;;9.32;4.63;;;25.20;65.20;;;;;;5116432;28;20031;-66
2023/09/04 07:41:46;;;;;;;6.05;4.60;;;25.10;65.30;;;;;;5116533;28;20053;-67
2023/09/04 07:44:12;;;;;;;10.02;4.97;;;25.10;65.80;;;;;;5124419;27;20023;-66
2023/09/04 07:46:40;;;;;;;7.15;5.10;;;25.00;65.50;;;;;;5120638;27;20028;-68
2023/09/04 07:49:07;;;;;;;6.05;4.40;;;24.90;66.00;;;;;;5116336;27;20441;-67
2023/09/04 07:51:33;;;;;;;6.03;3.95;;;24.90;66.30;;;;;;5123457;27;20030;-66
2023/09/04 07:53:59;;;;;;;7.03;4.50;;;24.80;66.80;;;;;;5127368;27;20026;-68
2023/09/04 07:56:25;;;;;;;7.55;4.85;;;24.80;66.50;;;;;;5132269;27;20111;-66
2023/09/04 07:58:50;;;;;;;6.88;4.90;;;24.70;66.40;;;;;;5132398;27;20072;-68
2023/09/04 08:01:17;;;;;;;7.07;4.75;;;24.70;66.00;;;;;;5124723;27;20027;-67
2023/09/04 08:03:43;;;;;;;5.38;4.05;;;24.70;66.10;;;;;;5114156;27;20024;-67
2023/09/04 08:06:10;;;;;;;5.43;4.20;;;24.70;66.30;;;;;;5122877;27;20042;-66
2023/09/04 08:08:37;;;;;;;7.47;4.45;;;24.90;66.10;;;;;;5118589;27;20410;-65
2023/09/04 08:11:04;;;;;;;6.20;4.03;;;25.00;65.50;;;;;;5120243;27;20098;-65
2023/09/04 08:13:30;;;;;;;6.25;4.30;;;25.10;64.90;;;;;;5124519;27;20329;-64
2023/09/04 08:15:56;;;;;;;7.88;4.30;;;25.20;64.80;;;;;;5134177;27;20022;-66
2023/09/04 08:18:22;;;;;;;9.07;4.75;;;25.20;64.50;;;;;;5119305;27;20032;-64
2023/09/04 08:20:49;;;;;;;5.43;4.20;;;25.10;64.10;;;;;;5117176;28;20067;-66
2023/09/04 08:23:15;;;;;;;6.50;3.97;;;25.20;64.20;;;;;;5121332;27;20023;-66
2023/09/04 08:25:41;;;;;;;5.80;4.40;;;25.10;64.30;;;;;;5131332;27;20035;-68
2023/09/04 08:28:07;;;;;;;7.65;4.57;;;25.10;64.50;;;;;;5123301;27;20027;-68
2023/09/04 08:30:34;;;;;;;6.32;4.05;;;25.20;64.60;;;;;;5116578;28;20031;-66
2023/09/04 08:32:59;;;;;;;7.63;3.90;;;25.30;64.40;;;;;;5115438;28;20501;-63
2023/09/04 08:35:28;;;;;;;6.85;3.70;;;25.40;63.80;;;;;;5114330;28;20122;-67
2023/09/04 08:37:55;;;;;;;6.47;4.03;;;25.40;63.60;;;;;;5116608;28;21520;-67
2023/09/04 08:40:21;;;;;;;6.45;3.70;;;25.40;63.50;;;;;;5112657;28;20502;-64
2023/09/04 08:42:50;;;;;;;5.28;3.85;;;25.50;63.40;;;;;;5116294;28;20136;-66
2023/09/04 08:45:17;;;;;;;6.35;4.13;;;25.50;63.40;;;;;;5116552;28;20036;-67
2023/09/04 08:47:44;;;;;;;6.60;4.10;;;25.60;63.10;;;;;;5116295;28;20517;-67
2023/09/04 08:50:12;;;;;;;5.45;3.83;;;25.80;63.00;;;;;;5135134;28;20023;-65
2023/09/04 08:52:40;;;;;;;8.07;4.10;;;25.90;63.10;;;;;;5116637;27;20024;-66
2023/09/04 08:55:07;;;;;;;4.45;3.78;;;26.20;62.50;;;;;;5125343;28;20027;-69
2023/09/04 08:57:33;;;;;;;5.25;3.50;;;26.50;62.20;;;;;;5128937;27;20092;-68
2023/09/04 09:00:00;;;;;;;4.88;3.90;;;26.80;61.00;;;;;;5118815;27;20107;-69
2023/09/04 09:02:26;;;;;;;7.25;4.30;;;26.90;60.80;;;;;;5113437;28;20457;-70
2023/09/04 09:04:53;;;;;;;6.03;3.85;;;26.90;60.50;;;;;;5120934;28;20051;-69
2023/09/04 09:07:23;;;;;;;5.60;3.72;;;26.90;59.70;;;;;;5114872;28;20012;-69
2023/09/04 09:09:51;;;;;;;9.95;4.03;;;26.80;59.50;;;;;;5122940;28;20031;-69
2023/09/04 09:12:17;;;;;;;4.47;3.80;;;26.60;59.60;;;;;;5129777;28;20012;-68
2023/09/04 09:14:43;;;;;;;6.68;3.88;;;26.60;60.10;;;;;;5131825;27;20027;-69
2023/09/04 09:17:13;;;;;;;6.53;3.90;;;26.60;60.60;;;;;;5116911;28;20028;-69
2023/09/04 09:19:39;;;;;;;6.50;4.00;;;26.50;60.40;;;;;;5116866;28;20404;-70
2023/09/04 09:22:16;;;;;;;6.70;4.35;;;26.50;59.90;;;;;;5125013;28;20460;-68
2023/09/04 09:24:56;;;;;;;6.45;3.88;;;26.40;59.90;;;;;;5116141;28;20032;-69
2023/09/04 09:27:33;;;;;;;6.75;4.20;;;26.40;60.10;;;;;;5112943;28;20441;-69
2023/09/04 09:30:00;;;;;;;9.00;4.18;;;26.30;60.50;;;;;;5114257;28;20039;-70
2023/09/04 09:32:29;;;;;;;5.57;4.22;;;26.20;60.70;;;;;;5118538;28;20028;-69
2023/09/04 09:34:57;;;;;;;8.98;3.95;;;26.20;60.80;;;;;;5126720;28;20039;-70
2023/09/04 09:37:25;;;;;;;8.48;3.97;;;26.20;60.80;;;;;;5128794;27;20028;-69
2023/09/04 09:39:51;;;;;;;6.50;4.00;;;26.20;61.10;;;;;;5123338;27;20015;-70
2023/09/04 09:42:23;;;;;;;7.50;4.07;;;26.20;61.00;;;;;;5138070;27;20337;-70
2023/09/04 09:44:51;;;;;;;7.35;4.10;;;26.30;61.20;;;;;;5122687;27;20031;-70
2023/09/04 09:47:20;;;;;;;5.10;3.72;;;26.30;61.20;;;;;;5128095;27;20322;-70
2023/09/04 09:49:46;;;;;;;5.57;4.03;;;26.20;61.20;;;;;;5116928;28;20156;-69
2023/09/04 09:52:13;;;;;;;6.00;3.60;;;26.30;61.40;;;;;;5118684;27;20107;-68
2023/09/04 09:54:45;;;;;;;6.15;3.85;;;26.40;61.50;;;;;;5118197;28;20027;-68
2023/09/04 09:57:13;;;;;;;7.65;5.03;;;26.40;60.90;;;;;;5125012;27;20330;-69
2023/09/04 09:59:43;;;;;;;4.78;3.65;;;26.60;60.80;;;;;;5127597;27;20334;-69
2023/09/04 10:02:09;;;;;;;9.07;4.47;;;26.80;61.20;;;;;;5134015;27;20117;-71
2023/09/04 10:04:36;;;;;;;6.32;4.55;;;26.90;60.40;;;;;;5133828;27;20051;-70
2023/09/04 10:07:04;;;;;;;5.78;3.90;;;27.00;60.40;;;;;;5136800;27;20333;-69
2023/09/04 10:09:44;;;;;;;5.18;3.78;;;27.10;59.80;;;;;;5131793;27;20062;-69
2023/09/04 10:12:17;;;;;;;9.80;4.15;;;27.10;59.30;;;;;;5130152;27;20046;-69
2023/09/04 10:14:45;;;;;;;7.63;4.60;;;27.20;60.10;;;;;;5124490;27;20035;-68
2023/09/04 10:17:30;;;;;;;6.28;3.97;;;27.30;59.20;;;;;;5138560;27;20069;-68
2023/09/04 10:20:01;;;;;;;6.20;3.88;;;27.10;58.90;;;;;;5125811;27;20027;-69
2023/09/04 10:22:34;;;;;;;7.40;3.92;;;27.10;59.40;;;;;;5136201;27;20055;-70
2023/09/04 10:25:09;;;;;;;;;;;27.20;59.10;;;;;;5138758;27;20031;-68
2023/09/04 10:27:41;;;;;;;4.40;3.42;;;27.20;59.30;;;;;;5135794;27;20562;-68
2023/09/04 10:30:13;;;;;;;5.60;3.67;;;27.40;59.30;;;;;;5127808;27;20031;-70
2023/09/04 10:32:39;;;;;;;7.45;4.00;;;27.40;59.20;;;;;;5120329;27;20046;-69
2023/09/04 10:35:07;;;;;;;5.40;3.90;;;27.60;59.20;;;;;;5114950;28;20533;-68
2023/09/04 10:37:34;;;;;;;5.82;3.70;;;27.60;58.40;;;;;;5117531;28;20518;-68
2023/09/04 10:40:02;;;;;;;5.00;3.65;;;27.60;58.30;;;;;;5117711;28;20027;-70
2023/09/04 10:42:28;;;;;;;7.05;3.47;;;27.70;58.50;;;;;;5116546;28;20110;-68
2023/09/04 10:44:56;;;;;;;7.90;4.40;;;27.80;58.30;;;;;;5117454;28;20099;-68
2023/09/04 10:47:23;;;;;;;6.75;3.85;;;27.80;57.70;;;;;;5117561;28;20023;-67
2023/09/04 10:49:49;;;;;;;6.40;3.85;;;27.80;57.90;;;;;;5117067;28;20064;-67
2023/09/04 10:52:15;;;;;;;6.82;4.00;;;27.90;57.90;;;;;;5116314;28;20023;-68
2023/09/04 10:54:42;;;;;;;5.80;3.70;;;27.90;57.70;;;;;;5117370;28;20027;-68
2023/09/04 10:57:12;;;;;;;6.28;3.80;;;28.00;57.70;;;;;;5117637;28;20114;-68
2023/09/04 10:59:53;;;;;;;7.45;4.25;;;28.10;57.90;;;;;;5117163;28;20023;-68
2023/09/04 11:02:33;;;;;;;4.50;3.65;;;28.10;56.20;;;;;;5117403;28;20107;-68
2023/09/04 11:05:14;;;;;;;5.55;4.03;;;28.00;57.50;;;;;;5117311;28;20058;-67
2023/09/04 11:07:41;;;;;;;6.18;3.50;;;28.00;57.50;;;;;;5117167;28;20023;-68
2023/09/04 11:10:14;;;;;;;4.50;3.45;;;28.20;57.70;;;;;;5116879;28;20024;-68
2023/09/04 11:12:44;;;;;;;;;;;28.40;57.70;;;;;;5117854;28;20034;-68
2023/09/04 11:17:40;;;;;;;6.53;3.92;;;28.70;56.60;;;;;;5116809;28;20027;-68
2023/09/04 11:20:12;;;;;;;6.57;3.40;;;28.60;56.40;;;;;;5116665;28;20027;-68
2023/09/04 11:22:49;;;;;;;4.57;3.42;;;28.50;56.60;;;;;;5116663;28;20050;-68
2023/09/04 11:25:15;;;;;;;3.67;2.92;;;28.60;56.60;;;;;;5116746;28;20028;-68
2023/09/04 11:27:44;;;;;;;4.07;3.22;;;28.80;56.70;;;;;;5116602;28;20348;-68
2023/09/04 11:30:10;;;;;;;5.63;3.35;;;28.90;55.70;;;;;;5116488;28;20038;-68
2023/09/04 11:32:37;;;;;;;6.60;3.85;;;28.90;55.60;;;;;;5116545;28;20449;-68
2023/09/04 11:35:09;;;;;;;8.27;3.92;;;28.80;55.70;;;;;;5109658;28;20056;-67
2023/09/04 11:37:35;;;;;;;5.20;3.33;;;28.70;55.90;;;;;;5117038;28;20446;-68
2023/09/04 11:40:04;;;;;;;5.90;3.65;;;28.50;56.30;;;;;;5116335;28;20019;-68
2023/09/04 11:42:30;;;;;;;9.40;4.05;;;28.40;56.50;;;;;;5115211;28;20380;-67
2023/09/04 11:44:56;;;;;;;5.43;4.15;;;28.30;57.00;;;;;;5116284;28;20049;-68
2023/09/04 11:47:24;;;;;;;7.22;4.15;;;28.20;57.30;;;;;;5116156;28;20023;-68
2023/09/04 11:49:50;;;;;;;4.68;3.80;;;28.20;57.70;;;;;;5115057;28;20279;-68
2023/09/04 11:52:25;;;;;;;5.15;3.58;;;28.40;57.80;;;;;;5116272;28;20020;-68
2023/09/04 11:55:03;;;;;;;6.55;4.43;;;28.50;57.60;;;;;;5115417;28;20102;-67
2023/09/04 11:57:29;;;;;;;6.38;4.32;;;28.50;57.30;;;;;;5116351;28;20030;-68
2023/09/04 11:59:55;;;;;;;4.93;4.20;;;28.40;57.40;;;;;;5115621;28;20020;-67
2023/09/04 12:02:23;;;;;;;7.05;4.18;;;28.40;57.20;;;;;;5115614;28;20057;-68
2023/09/04 12:04:52;;;;;;;6.50;3.95;;;28.30;57.30;;;;;;5115846;28;20114;-68
2023/09/04 12:07:19;;;;;;;5.45;4.00;;;28.30;57.20;;;;;;5115834;28;20031;-68
2023/09/04 12:09:45;;;;;;;5.93;3.90;;;28.20;57.20;;;;;;5114774;28;20031;-67
2023/09/04 12:12:15;;;;;;;5.95;4.00;;;28.20;57.10;;;;;;5115809;28;20015;-68
2023/09/04 12:14:45;;;;;;;5.70;3.80;;;28.30;57.00;;;;;;5115716;28;20027;-68
2023/09/04 12:17:11;;;;;;;5.90;3.60;;;28.40;56.80;;;;;;5115746;28;20095;-68
2023/09/04 12:19:40;;;;;;;6.63;3.47;;;28.40;56.70;;;;;;5116263;28;20081;-68
2023/09/04 12:22:15;;;;;;;7.50;3.97;;;28.50;56.30;;;;;;5115705;28;20030;-69
2023/09/04 12:25:05;;;;;;;5.25;3.63;;;28.50;56.40;;;;;;5097553;28;20024;-68
2023/09/04 12:27:33;;;;;;;6.15;3.85;;;28.60;56.30;;;;;;5116143;28;20079;-70
2023/09/04 12:30:04;;;;;;;6.10;3.72;;;28.70;55.70;;;;;;5115824;28;20402;-69
2023/09/04 12:32:39;;;;;;;5.35;3.80;;;28.80;55.30;;;;;;5115446;28;20464;-70
2023/09/04 12:35:07;;;;;;;4.03;3.63;;;28.80;54.90;;;;;;5114847;28;20395;-69
2023/09/04 12:37:46;;;;;;;5.45;3.90;;;28.80;54.90;;;;;;5116007;28;20034;-70
2023/09/04 12:40:12;;;;;;;5.00;3.85;;;28.90;54.50;;;;;;5115496;28;20088;-70
2023/09/04 12:47:36;;;;;;;5.57;4.05;;;28.90;54.60;;;;;;5116087;28;20032;-69
2023/09/04 12:50:04;;;;;;;4.03;3.63;;;28.80;54.60;;;;;;5115784;28;20019;-69
2023/09/04 12:52:37;;;;;;;5.13;3.40;;;28.70;54.90;;;;;;5115594;28;20039;-69
2023/09/04 12:55:03;;;;;;;6.00;4.03;;;28.70;55.10;;;;;;5115227;28;20024;-70
2023/09/04 12:57:30;;;;;;;4.28;3.88;;;28.80;55.00;;;;;;5115581;28;20020;-71
2023/09/04 12:59:56;;;;;;;5.28;3.50;;;28.80;54.70;;;;;;5115408;28;20035;-70
2023/09/04 13:02:22;;;;;;;5.13;3.88;;;28.70;54.70;;;;;;5115497;28;20102;-70
2023/09/04 13:04:55;;;;;;;4.35;3.53;;;28.70;54.70;;;;;;5114070;28;20062;-69
2023/09/04 13:07:23;;;;;;;4.35;3.70;;;28.80;54.70;;;;;;5114997;28;20034;-70